createdAt,value
2019-01-16T00:04:31.010Z,98221.10
2019-01-16T00:07:38.105Z,98225.20
2019-01-16T00:10:46.640Z,98221.64
2019-01-16T00:13:34.398Z,98213.69
2019-01-16T00:16:22.140Z,98216.18
2019-01-16T00:19:09.692Z,98213.49
2019-01-16T00:24:46.531Z,98213.28
2019-01-16T00:27:34.269Z,98204.47
2019-01-16T00:32:57.323Z,98200.41
2019-01-16T00:35:45.076Z,98208.31
2019-01-16T00:43:56.999Z,98195.43
2019-01-16T00:46:44.511Z,98191.59
2019-01-16T00:49:32.023Z,98184.88
2019-01-16T00:52:19.545Z,98184.39
2019-01-16T01:03:16.997Z,98177.80
2019-01-16T01:06:04.568Z,98177.06
2019-01-16T01:08:52.319Z,98172.09
2019-01-16T01:11:40.071Z,98176.09
2019-01-16T01:14:27.833Z,98175.36
2019-01-16T01:17:15.647Z,98176.77
2019-01-16T01:20:03.156Z,98172.34
2019-01-16T01:22:50.661Z,98172.63
2019-01-16T01:25:38.177Z,98171.59
2019-01-16T01:31:14.782Z,98169.89
2019-01-16T01:36:51.385Z,98175.70
2019-01-16T01:39:38.889Z,98176.52
2019-01-16T01:42:26.407Z,98179.50
2019-01-16T01:45:13.908Z,98174.88
2019-01-16T01:50:36.639Z,98180.87
2019-01-16T01:53:24.139Z,98180.33
2019-01-16T01:56:11.887Z,98180.91
2019-01-16T02:07:03.455Z,98173.83
2019-01-16T02:09:50.958Z,98169.98
2019-01-16T02:15:15.312Z,98165.59
2019-01-16T02:18:03.111Z,98167.03
2019-01-16T02:20:50.679Z,98162.11
2019-01-16T02:23:38.423Z,98153.63
2019-01-16T02:34:33.936Z,98139.94
2019-01-16T02:37:21.448Z,98145.41
2019-01-16T02:42:44.354Z,98131.78
2019-01-16T02:48:07.216Z,98138.58
2019-01-16T02:50:54.723Z,98130.42
2019-01-16T02:53:42.221Z,98123.10
2019-01-16T02:56:29.729Z,98112.75
2019-01-16T03:02:06.318Z,98103.56
2019-01-16T03:04:53.820Z,98102.04
2019-01-16T03:10:16.862Z,98096.73
2019-01-16T03:13:04.379Z,98095.95
2019-01-16T03:15:51.876Z,98075.27
2019-01-16T03:18:39.637Z,98091.61
2019-01-16T03:21:46.489Z,98090.79
2019-01-16T03:27:13.265Z,98085.61
2019-01-16T03:30:00.785Z,98090.50
2019-01-16T03:32:48.299Z,98079.33
2019-01-16T03:35:35.818Z,98074.17
2019-01-16T03:43:48.055Z,98068.73
2019-01-16T03:46:35.555Z,98062.72
2019-01-16T03:49:23.339Z,98061.62
2019-01-16T03:52:10.838Z,98056.44
2019-01-16T03:54:58.357Z,98052.09
2019-01-16T04:00:35.026Z,98040.67
2019-01-16T04:06:11.677Z,98039.58
2019-01-16T04:08:59.189Z,98042.56
2019-01-16T04:11:46.704Z,98032.51
2019-01-16T04:14:53.808Z,98033.84
2019-01-16T04:17:41.565Z,98029.75
2019-01-16T04:20:29.072Z,98021.58
2019-01-16T04:23:16.590Z,98018.05
2019-01-16T04:26:04.345Z,98016.11
2019-01-16T04:28:51.865Z,98013.66
2019-01-16T04:31:39.365Z,98013.06
2019-01-16T04:34:27.122Z,98017.98
2019-01-16T04:37:14.875Z,98018.56
2019-01-16T04:40:02.379Z,98010.91
2019-01-16T04:42:50.133Z,98012.25
2019-01-16T04:45:37.638Z,98001.89
2019-01-16T04:48:25.159Z,97997.55
2019-01-16T04:51:12.888Z,98000.25
2019-01-16T04:54:00.406Z,98000.50
2019-01-16T04:59:37.007Z,97997.52
2019-01-16T05:07:39.360Z,97989.39
2019-01-16T05:10:47.656Z,97986.92
2019-01-16T05:13:35.175Z,97983.94
2019-01-16T05:19:38.378Z,97982.34
2019-01-16T05:22:39.563Z,97973.87
2019-01-16T05:30:42.213Z,97959.75
2019-01-16T05:36:37.805Z,97948.60
2019-01-16T05:39:46.343Z,97937.75
2019-01-16T05:42:33.862Z,97936.91
2019-01-16T05:45:21.377Z,97932.58
2019-01-16T05:51:03.509Z,97955.42
2019-01-16T05:53:51.010Z,97961.99
2019-01-16T05:56:38.533Z,97954.62
2019-01-16T05:59:26.273Z,97949.98
2019-01-16T06:02:13.793Z,97943.75
2019-01-16T06:05:01.294Z,97945.66
2019-01-16T06:10:44.025Z,97947.85
2019-01-16T06:13:31.764Z,97946.20
2019-01-16T06:16:19.291Z,97948.67
2019-01-16T06:22:15.209Z,97950.05
2019-01-16T06:30:46.644Z,97944.32
2019-01-16T06:33:34.404Z,97939.14
2019-01-16T06:36:22.002Z,97935.87
2019-01-16T06:39:09.751Z,97929.34
2019-01-16T06:47:12.127Z,97932.08
2019-01-16T06:50:01.890Z,97930.17
2019-01-16T06:52:49.361Z,97924.73
2019-01-16T06:55:37.100Z,97925.27
2019-01-16T06:58:24.848Z,97920.38
2019-01-16T07:01:12.350Z,97918.20
2019-01-16T07:03:59.866Z,97914.67
2019-01-16T07:06:47.426Z,97904.06
2019-01-16T07:09:34.879Z,97899.42
2019-01-16T07:12:22.381Z,97903.77
2019-01-16T07:15:10.143Z,97902.42
2019-01-16T07:17:57.641Z,97906.20
2019-01-16T07:20:45.398Z,97912.17
2019-01-16T07:23:32.902Z,97907.84
2019-01-16T07:26:20.652Z,97909.73
2019-01-16T07:29:08.166Z,97904.85
2019-01-16T07:31:55.681Z,97905.92
2019-01-16T07:34:43.193Z,97899.11
2019-01-16T07:40:09.993Z,97890.44
2019-01-16T07:42:57.730Z,97887.73
2019-01-16T07:45:45.241Z,97895.34
2019-01-16T07:51:21.845Z,97874.69
2019-01-16T07:54:09.347Z,97872.78
2019-01-16T07:59:32.361Z,97875.22
2019-01-16T08:02:19.862Z,97869.23
2019-01-16T08:10:18.095Z,97871.16
2019-01-16T08:13:05.599Z,97876.89
2019-01-16T08:15:53.115Z,97880.69
2019-01-16T08:18:40.636Z,97873.34
2019-01-16T08:21:28.396Z,97869.78
2019-01-16T08:24:15.900Z,97877.41
2019-01-16T08:27:03.432Z,97879.85
2019-01-16T08:29:51.165Z,97868.42
2019-01-16T08:32:38.680Z,97862.18
2019-01-16T08:35:46.974Z,97863.52
2019-01-16T08:46:33.240Z,97855.25
2019-01-16T08:49:20.765Z,97857.77
2019-01-16T08:52:08.500Z,97848.45
2019-01-16T08:54:56.025Z,97849.78
2019-01-16T08:57:43.532Z,97847.27
2019-01-16T09:00:52.075Z,97844.31
2019-01-16T09:03:39.578Z,97845.90
2019-01-16T09:06:27.349Z,97843.93
2019-01-16T09:09:14.854Z,97853.14
2019-01-16T09:12:02.442Z,97852.14
2019-01-16T09:14:49.946Z,97850.74
2019-01-16T09:17:37.473Z,97846.87
2019-01-16T09:20:45.775Z,97852.96
2019-01-16T09:23:33.294Z,97842.28
2019-01-16T09:26:20.934Z,97844.18
2019-01-16T09:29:08.640Z,97841.00
2019-01-16T09:32:15.549Z,97836.23
2019-01-16T09:40:18.239Z,97829.60
2019-01-16T09:43:05.739Z,97827.80
2019-01-16T09:45:53.256Z,97825.36
2019-01-16T09:48:40.756Z,97816.13
2019-01-16T09:59:22.969Z,97806.95
2019-01-16T10:02:10.499Z,97797.92
2019-01-16T10:04:58.018Z,97794.12
2019-01-16T10:13:14.041Z,97774.69
2019-01-16T10:16:01.797Z,97772.44
2019-01-16T10:18:49.635Z,97773.40
2019-01-16T10:21:37.157Z,97761.78
2019-01-16T10:27:00.484Z,97750.78
2019-01-16T10:29:48.254Z,97755.78
2019-01-16T10:32:35.777Z,97747.31
2019-01-16T10:35:23.467Z,97749.77
2019-01-16T10:38:02.354Z,97746.04
2019-01-16T10:40:50.540Z,97738.22
2019-01-16T10:43:32.202Z,97740.85
2019-01-16T10:46:18.429Z,97732.47
2019-01-16T10:49:00.038Z,97725.72
2019-01-16T10:51:46.639Z,97725.30
2019-01-16T10:54:16.699Z,97722.86
2019-01-16T10:56:53.206Z,97720.81
2019-01-16T10:59:23.261Z,97717.12
2019-01-16T11:01:59.093Z,97713.07
2019-01-16T11:04:40.723Z,97712.36
2019-01-16T11:07:13.707Z,97697.29
2019-01-16T11:09:49.754Z,97692.00
2019-01-16T11:12:22.999Z,97695.64
2019-01-16T11:14:59.011Z,97685.77
2019-01-16T11:17:31.740Z,97673.53
2019-01-16T11:20:18.353Z,97672.00
2019-01-16T11:23:03.483Z,97667.34
2019-01-16T11:25:36.442Z,97665.92
2019-01-16T11:28:06.637Z,97665.61
2019-01-16T11:30:39.491Z,97657.98
2019-01-16T11:33:09.568Z,97661.53
2019-01-16T11:35:42.346Z,97655.07
2019-01-16T11:38:12.432Z,97651.84
2019-01-16T11:40:45.590Z,97651.03
2019-01-16T11:43:31.194Z,97644.13
2019-01-16T11:46:19.315Z,97642.97
2019-01-16T11:49:05.506Z,97639.75
2019-01-16T11:51:44.389Z,97639.79
2019-01-16T11:54:23.901Z,97631.77
2019-01-16T11:56:57.307Z,97625.28
2019-01-16T11:59:27.347Z,97622.48
2019-01-16T12:01:57.386Z,97618.75
2019-01-16T12:04:43.936Z,97613.39
2019-01-16T12:07:16.641Z,97609.48
2019-01-16T12:09:55.420Z,97608.59
2019-01-16T12:12:27.922Z,97599.73
2019-01-16T12:15:10.001Z,97590.31
2019-01-16T12:17:58.041Z,97583.36
2019-01-16T12:20:40.006Z,97578.03
2019-01-16T12:23:12.743Z,97569.84
2019-01-16T12:25:57.977Z,97564.64
2019-01-16T12:28:28.029Z,97558.38
2019-01-16T12:31:00.756Z,97555.41
2019-01-16T12:33:30.802Z,97543.52
2019-01-16T12:36:03.684Z,97539.53
2019-01-16T12:38:39.845Z,97536.20
2019-01-16T12:41:10.193Z,97537.13
2019-01-16T12:43:46.015Z,97537.22
2019-01-16T12:46:28.332Z,97529.36
2019-01-16T12:49:16.660Z,97525.70
2019-01-16T12:51:55.931Z,97526.12
2019-01-16T12:54:42.441Z,97515.44
2019-01-16T12:57:28.687Z,97506.34
2019-01-16T13:00:04.242Z,97503.70
2019-01-16T13:02:36.866Z,97499.98
2019-01-16T13:05:09.186Z,97501.73
2019-01-16T13:07:54.728Z,97488.39
2019-01-16T13:10:32.972Z,97496.99
2019-01-16T13:13:05.992Z,97487.17
2019-01-16T13:15:36.203Z,97486.80
2019-01-16T13:18:06.480Z,97483.84
2019-01-16T13:20:39.260Z,97483.11
2019-01-16T13:23:12.400Z,97477.66
2019-01-16T13:25:58.985Z,97471.13
2019-01-16T13:28:29.015Z,97469.16
2019-01-16T13:31:10.857Z,97462.78
2019-01-16T13:33:41.180Z,97460.20
2019-01-16T13:36:11.218Z,97460.91
2019-01-16T13:38:41.251Z,97452.59
2019-01-16T13:41:27.760Z,97451.01
2019-01-16T13:44:12.857Z,97445.95
2019-01-16T13:46:48.790Z,97446.27
2019-01-16T13:49:18.827Z,97445.35
2019-01-16T13:52:05.048Z,97439.80
2019-01-16T13:54:41.085Z,97431.48
2019-01-16T13:57:20.310Z,97430.20
2019-01-16T13:59:50.338Z,97427.83
2019-01-16T14:02:26.372Z,97427.69
2019-01-16T14:05:05.573Z,97410.91
2019-01-16T14:07:35.609Z,97417.56
2019-01-16T14:10:08.326Z,97415.41
2019-01-16T14:12:54.864Z,97410.45
2019-01-16T14:15:41.659Z,97401.00
2019-01-16T14:18:11.756Z,97409.59
2019-01-16T14:20:42.102Z,97409.16
2019-01-16T14:23:24.139Z,97406.72
2019-01-16T14:25:56.739Z,97397.14
2019-01-16T14:28:26.758Z,97393.70
2019-01-16T14:31:05.833Z,97390.78
2019-01-16T14:33:36.151Z,97383.59
2019-01-16T14:36:06.884Z,97381.88
2019-01-16T14:38:36.919Z,97374.64
2019-01-16T14:41:12.971Z,97372.72
2019-01-16T14:43:48.986Z,97374.47
2019-01-16T14:46:37.675Z,97363.61
2019-01-16T14:49:10.881Z,97357.61
2019-01-16T14:51:50.666Z,97355.83
2019-01-16T14:54:38.922Z,97356.41
2019-01-16T14:57:18.484Z,97360.58
2019-01-16T14:59:54.020Z,97353.84
2019-01-16T15:02:24.356Z,97354.93
2019-01-16T15:05:09.683Z,97351.20
2019-01-16T15:07:42.637Z,97351.66
2019-01-16T15:10:12.739Z,97352.08
2019-01-16T15:12:58.878Z,97347.92
2019-01-16T15:15:43.721Z,97348.84
2019-01-16T15:18:22.842Z,97352.39
2019-01-16T15:20:52.876Z,97353.21
2019-01-16T15:23:22.914Z,97353.39
2019-01-16T15:25:52.952Z,97346.73
2019-01-16T15:28:34.704Z,97347.59
2019-01-16T15:31:16.997Z,97342.36
2019-01-16T15:33:49.442Z,97342.30
2019-01-16T15:36:28.365Z,97335.34
2019-01-16T15:39:07.367Z,97333.35
2019-01-16T15:41:40.568Z,97326.59
2019-01-16T15:44:10.601Z,97330.31
2019-01-16T15:46:49.753Z,97326.08
2019-01-16T15:49:22.756Z,97324.72
2019-01-16T15:51:58.486Z,97327.02
2019-01-16T15:54:28.518Z,97315.70
2019-01-16T15:57:01.606Z,97314.70
2019-01-16T15:59:43.627Z,97311.50
2019-01-16T16:02:19.902Z,97307.40
2019-01-16T16:05:05.303Z,97298.65
2019-01-16T16:07:37.755Z,97291.38
2019-01-16T16:10:16.838Z,97294.70
2019-01-16T16:12:46.894Z,97286.08
2019-01-16T16:15:23.007Z,97290.64
2019-01-16T16:17:53.058Z,97285.03
2019-01-16T16:20:25.747Z,97280.88
2019-01-16T16:22:56.024Z,97282.41
2019-01-16T16:25:26.071Z,97282.77
2019-01-16T16:27:59.155Z,97283.40
2019-01-16T16:30:44.400Z,97283.12
2019-01-16T16:33:29.062Z,97281.33
2019-01-16T16:36:10.989Z,97282.86
2019-01-16T16:38:57.697Z,97281.84
2019-01-16T16:41:45.449Z,97278.80
2019-01-16T16:44:32.970Z,97281.58
2019-01-16T16:58:09.514Z,97258.66
2019-01-16T17:03:46.244Z,97252.00
2019-01-16T17:12:17.356Z,97244.84
2019-01-16T17:15:04.864Z,97250.08
2019-01-16T17:20:31.957Z,97252.50
2019-01-16T17:23:19.510Z,97247.51
2019-01-16T17:28:42.627Z,97243.09
2019-01-16T17:31:30.151Z,97236.14
2019-01-16T17:34:17.668Z,97236.64
2019-01-16T17:37:05.447Z,97232.00
2019-01-16T17:39:52.966Z,97231.69
2019-01-16T17:42:40.541Z,97228.81
2019-01-16T17:45:28.240Z,97230.44
2019-01-16T17:48:15.760Z,97220.25
2019-01-16T17:54:01.075Z,97209.18
2019-01-16T17:59:37.677Z,97206.54
2019-01-16T18:02:25.327Z,97205.72
2019-01-16T18:08:01.919Z,97206.03
2019-01-16T18:13:38.521Z,97201.28
2019-01-16T18:16:26.022Z,97203.00
2019-01-16T18:19:13.541Z,97208.22
2019-01-16T18:27:29.624Z,97201.70
2019-01-16T18:30:17.139Z,97186.85
2019-01-16T18:33:04.895Z,97193.16
2019-01-16T18:35:52.644Z,97190.94
2019-01-16T18:46:40.221Z,97203.63
2019-01-16T18:49:27.725Z,97203.23
2019-01-16T18:52:15.248Z,97204.20
2019-01-16T18:55:02.755Z,97203.34
2019-01-16T19:00:48.788Z,97211.20
2019-01-16T19:03:36.544Z,97210.25
2019-01-16T19:06:24.180Z,97200.88
2019-01-16T19:09:11.705Z,97196.28
2019-01-16T19:11:59.206Z,97196.63
2019-01-16T19:14:46.959Z,97187.55
2019-01-16T19:17:34.459Z,97187.22
2019-01-16T19:20:22.112Z,97183.63
2019-01-16T19:23:09.869Z,97188.44
2019-01-16T19:31:12.561Z,97181.89
2019-01-16T19:34:00.082Z,97175.20
2019-01-16T19:36:47.595Z,97173.33
2019-01-16T19:39:35.115Z,97170.66
2019-01-16T19:42:22.613Z,97166.81
2019-01-16T19:45:10.129Z,97172.81
2019-01-16T19:47:57.629Z,97174.05
2019-01-16T19:50:45.147Z,97183.95
2019-01-16T19:53:32.897Z,97178.96
2019-01-16T19:56:20.488Z,97177.55
2019-01-16T19:59:08.293Z,97175.76
2019-01-16T20:01:55.814Z,97185.16
2019-01-16T20:07:32.481Z,97175.97
2019-01-16T20:10:19.984Z,97169.45
2019-01-16T20:13:07.499Z,97164.89
2019-01-16T20:19:03.076Z,97150.23
2019-01-16T20:27:34.517Z,97158.59
2019-01-16T20:33:11.425Z,97147.41
2019-01-16T20:35:58.938Z,97154.39
2019-01-16T20:38:46.695Z,97146.83
2019-01-16T20:46:52.666Z,97137.98
2019-01-16T20:49:40.178Z,97132.53
2019-01-16T20:55:16.911Z,97125.09
2019-01-16T21:00:53.507Z,97125.30
2019-01-16T21:03:41.239Z,97126.29
2019-01-16T21:06:28.756Z,97118.83
2019-01-16T21:09:16.256Z,97116.05
2019-01-16T21:12:03.913Z,97122.25
2019-01-16T21:14:51.651Z,97118.06
2019-01-16T21:17:39.169Z,97117.06
2019-01-16T21:20:47.459Z,97118.75
2019-01-16T21:23:35.041Z,97117.30
2019-01-16T21:26:22.541Z,97119.98
2019-01-16T21:34:29.074Z,97124.03
2019-01-16T21:37:16.576Z,97120.21
2019-01-16T21:42:39.626Z,97116.06
2019-01-16T21:45:46.487Z,97118.42
2019-01-16T21:48:54.785Z,97117.98
2019-01-16T21:54:17.906Z,97123.62
2019-01-16T21:59:54.505Z,97131.55
2019-01-16T22:02:42.235Z,97122.41
2019-01-16T22:05:29.821Z,97126.82
2019-01-16T22:08:17.325Z,97119.63
2019-01-16T22:11:04.887Z,97119.86
2019-01-16T22:13:52.360Z,97122.22
2019-01-16T22:22:13.949Z,97121.98
2019-01-16T22:30:45.515Z,97122.94
2019-01-16T22:33:33.268Z,97124.08
2019-01-16T22:36:20.775Z,97126.04
2019-01-16T22:39:08.359Z,97123.02
2019-01-16T22:41:55.862Z,97114.34
2019-01-16T22:44:43.381Z,97114.94
2019-01-16T22:47:30.888Z,97110.38
2019-01-16T22:50:18.479Z,97115.57
2019-01-16T22:53:05.995Z,97115.25
2019-01-16T22:58:29.173Z,97113.69
2019-01-16T23:01:37.489Z,97112.80
2019-01-16T23:07:14.326Z,97099.30
2019-01-16T23:10:01.829Z,97096.80
2019-01-16T23:12:49.355Z,97099.53
2019-01-16T23:15:36.864Z,97105.50
2019-01-16T23:20:59.794Z,97095.54
2019-01-16T23:23:49.861Z,97088.30
2019-01-16T23:26:36.550Z,97087.90
2019-01-16T23:29:50.297Z,97088.88
2019-01-16T23:32:34.400Z,97089.94
2019-01-16T23:35:22.234Z,97086.56
2019-01-16T23:48:48.881Z,97088.16
2019-01-16T23:51:36.416Z,97092.70
2019-01-16T23:54:44.705Z,97089.88
